Time;durP1;ratioP1;P1;durP2;ratioP2;P2;SDS_P1;SDS_P2;PMS_P1;PMS_P2;Temp;Humidity;BMP_temperature;BMP_pressure;BME280_temperature;BME280_humidity;BME280_pressure;Samples;Min_cycle;Max_cycle;Signal;HPM_P1;HPM_P2
2023/04/16 00:00:43;;;;;;;59.08;26.10;;;9.20;99.90;;;;;;6183591;23;20063;-90
2023/04/16 00:03:09;;;;;;;62.65;27.27;;;9.20;99.90;;;;;;6182277;23;20434;-91
2023/04/16 00:05:34;;;;;;;60.65;25.65;;;9.20;99.90;;;;;;6183400;23;20013;-90
2023/04/16 00:08:00;;;;;;;68.63;27.65;;;9.20;99.90;;;;;;6183656;23;20052;-91
2023/04/16 00:10:26;;;;;;;51.97;23.90;;;9.20;99.90;;;;;;6184618;23;20017;-91
2023/04/16 00:12:51;;;;;;;55.65;23.70;;;9.10;99.90;;;;;;6183009;23;20021;-90
2023/04/16 00:15:17;;;;;;;70.55;27.67;;;9.10;99.90;;;;;;6185125;23;20021;-91
2023/04/16 00:17:42;;;;;;;69.20;28.08;;;9.10;99.90;;;;;;6184567;23;20020;-90
2023/04/16 00:20:08;;;;;;;57.13;26.42;;;9.10;99.90;;;;;;6183779;23;20346;-90
2023/04/16 00:22:34;;;;;;;57.78;26.20;;;9.10;99.90;;;;;;6184294;23;20048;-90
2023/04/16 00:25:00;;;;;;;59.08;26.10;;;9.10;99.90;;;;;;6184014;23;20024;-91
2023/04/16 00:27:25;;;;;;;66.18;27.27;;;9.20;99.90;;;;;;6184864;23;20013;-89
2023/04/16 00:29:51;;;;;;;58.20;26.00;;;9.10;99.90;;;;;;6183312;23;20017;-88
2023/04/16 00:32:17;;;;;;;51.58;23.50;;;9.10;99.90;;;;;;6183180;23;20021;-89
2023/04/16 00:34:43;;;;;;;65.68;27.60;;;9.20;99.90;;;;;;6184465;23;20009;-88
2023/04/16 00:37:08;;;;;;;64.25;27.80;;;9.10;99.90;;;;;;6184854;23;20019;-88
2023/04/16 00:39:34;;;;;;;45.88;23.73;;;9.20;99.90;;;;;;6183323;23;20016;-89
2023/04/16 00:42:00;;;;;;;72.45;29.02;;;9.20;99.90;;;;;;6183838;23;20028;-88
2023/04/16 00:44:26;;;;;;;57.00;24.80;;;9.20;99.90;;;;;;6185027;23;20024;-89
2023/04/16 00:46:52;;;;;;;62.00;26.48;;;9.20;99.90;;;;;;6183534;23;20446;-89
2023/04/16 00:49:18;;;;;;;49.88;22.45;;;9.20;99.90;;;;;;6185853;23;20017;-90
2023/04/16 00:51:44;;;;;;;58.95;27.08;;;9.20;99.90;;;;;;6182721;23;20021;-89
2023/04/16 00:54:09;;;;;;;67.65;28.88;;;9.20;99.90;;;;;;6185627;23;20337;-89
2023/04/16 00:56:36;;;;;;;65.25;28.02;;;9.20;99.90;;;;;;6185261;23;20401;-89
2023/04/16 00:59:02;;;;;;;68.90;29.38;;;9.20;99.90;;;;;;6184708;23;20021;-89
2023/04/16 01:01:28;;;;;;;60.53;26.70;;;9.20;99.90;;;;;;6158932;23;20432;-89
2023/04/16 01:03:54;;;;;;;69.68;27.58;;;9.20;99.90;;;;;;6183527;23;20468;-89
2023/04/16 01:06:20;;;;;;;76.25;29.25;;;9.20;99.90;;;;;;6184873;23;20035;-89
2023/04/16 01:08:47;;;;;;;53.47;24.67;;;9.20;99.90;;;;;;6184169;23;20501;-89
2023/04/16 01:11:13;;;;;;;73.43;28.25;;;9.20;99.90;;;;;;6185941;23;20013;-88
2023/04/16 01:13:39;;;;;;;76.93;29.38;;;9.20;99.90;;;;;;6184521;23;20541;-89
2023/04/16 01:16:10;;;;;;;74.20;28.95;;;9.20;99.90;;;;;;6185649;23;20045;-88
2023/04/16 01:18:36;;;;;;;57.42;25.92;;;9.20;99.90;;;;;;6185873;23;20017;-89
2023/04/16 01:21:02;;;;;;;66.18;27.05;;;9.20;99.90;;;;;;6185029;23;20020;-89
2023/04/16 01:23:28;;;;;;;71.25;27.75;;;9.20;99.90;;;;;;6187170;23;20021;-89
2023/04/16 01:25:54;;;;;;;68.60;27.52;;;9.20;99.90;;;;;;6184908;23;20076;-89
2023/04/16 01:28:20;;;;;;;78.70;28.45;;;9.20;99.90;;;;;;6184984;23;20013;-89
2023/04/16 01:30:45;;;;;;;53.85;24.25;;;9.20;99.90;;;;;;6186953;23;20017;-88
2023/04/16 01:33:12;;;;;;;54.30;24.45;;;9.20;99.90;;;;;;6185010;23;20020;-88
2023/04/16 01:35:39;;;;;;;75.80;28.75;;;9.20;99.90;;;;;;6185521;23;20045;-89
2023/04/16 01:38:07;;;;;;;56.70;24.92;;;9.20;99.90;;;;;;6187083;23;20013;-89
2023/04/16 01:40:34;;;;;;;59.65;25.75;;;9.20;99.90;;;;;;6204668;23;20021;-89
2023/04/16 01:43:00;;;;;;;64.07;27.42;;;9.20;99.90;;;;;;6190662;23;20071;-89
2023/04/16 01:45:25;;;;;;;74.15;29.42;;;9.20;99.90;;;;;;6189372;23;20437;-89
2023/04/16 01:47:51;;;;;;;84.93;30.23;;;9.20;99.90;;;;;;6216073;23;20071;-89
2023/04/16 01:50:19;;;;;;;75.35;30.73;;;9.20;99.90;;;;;;6190606;23;20009;-89
2023/04/16 01:52:44;;;;;;;67.45;29.25;;;9.20;99.90;;;;;;6189997;23;20024;-88
2023/04/16 01:55:10;;;;;;;62.60;27.92;;;9.20;99.90;;;;;;6189368;23;20009;-88
2023/04/16 01:57:36;;;;;;;53.33;25.27;;;9.20;99.90;;;;;;6217006;23;20429;-89
2023/04/16 02:00:02;;;;;;;60.00;28.70;;;9.10;99.90;;;;;;6190030;23;20071;-87
2023/04/16 02:02:28;;;;;;;54.72;25.10;;;9.20;99.90;;;;;;6216274;23;20337;-89
2023/04/16 02:04:56;;;;;;;55.67;27.92;;;9.10;99.90;;;;;;6189994;23;20027;-89
2023/04/16 02:07:22;;;;;;;56.53;25.40;;;9.10;99.90;;;;;;6189960;23;20023;-88
2023/04/16 02:09:49;;;;;;;60.63;28.42;;;9.10;99.90;;;;;;6189558;23;20085;-88
2023/04/16 02:12:15;;;;;;;56.17;26.02;;;9.10;99.90;;;;;;6190171;23;20096;-89
2023/04/16 02:14:41;;;;;;;48.65;24.75;;;9.10;99.90;;;;;;6189703;23;20044;-88
2023/04/16 02:17:06;;;;;;;59.08;27.40;;;9.10;99.90;;;;;;6216355;23;20016;-88
2023/04/16 02:19:32;;;;;;;56.58;27.92;;;9.10;99.90;;;;;;6189908;23;20349;-89
2023/04/16 02:21:57;;;;;;;61.80;29.48;;;9.10;99.90;;;;;;6216545;23;20013;-88
2023/04/16 02:24:23;;;;;;;47.80;26.83;;;9.10;99.90;;;;;;6189312;23;20027;-89
2023/04/16 02:26:49;;;;;;;66.07;28.77;;;9.10;99.90;;;;;;6189401;23;20017;-88
2023/04/16 02:29:15;;;;;;;57.70;28.13;;;9.10;99.90;;;;;;6190268;23;20020;-89
2023/04/16 02:31:41;;;;;;;46.92;24.88;;;9.10;99.90;;;;;;6216129;23;20040;-89
2023/04/16 02:34:06;;;;;;;72.22;30.52;;;9.10;99.90;;;;;;6190370;23;20112;-89
2023/04/16 02:36:32;;;;;;;55.75;26.58;;;9.10;99.90;;;;;;6189057;23;20017;-89
2023/04/16 02:38:58;;;;;;;54.90;26.15;;;9.10;99.90;;;;;;6190312;23;20020;-89
2023/04/16 02:41:23;;;;;;;56.83;26.25;;;9.00;99.90;;;;;;6216587;23;20023;-89
2023/04/16 02:43:49;;;;;;;73.40;30.77;;;9.10;99.90;;;;;;6188976;23;20123;-89
2023/04/16 02:46:15;;;;;;;49.33;26.90;;;9.10;99.90;;;;;;6189912;23;20147;-89
2023/04/16 02:48:40;;;;;;;55.55;26.95;;;9.00;99.90;;;;;;6189777;23;20017;-89
2023/04/16 02:51:06;;;;;;;49.13;24.75;;;9.00;99.90;;;;;;6216192;23;20023;-90
2023/04/16 02:53:31;;;;;;;64.07;28.70;;;9.00;99.90;;;;;;6190174;23;20013;-89
2023/04/16 02:55:57;;;;;;;57.53;28.63;;;9.00;99.90;;;;;;6216787;23;20373;-89
2023/04/16 02:58:24;;;;;;;49.42;26.98;;;9.00;99.90;;;;;;6189389;23;20389;-89
2023/04/16 03:00:51;;;;;;;53.67;27.77;;;9.00;99.90;;;;;;6189527;23;20091;-89
2023/04/16 03:03:17;;;;;;;60.90;30.40;;;9.00;99.90;;;;;;6217128;23;20020;-90
2023/04/16 03:05:43;;;;;;;58.33;29.15;;;9.00;99.90;;;;;;6188809;23;20013;-89
2023/04/16 03:08:09;;;;;;;51.63;26.77;;;9.00;99.90;;;;;;6189831;23;20101;-89
2023/04/16 03:10:35;;;;;;;50.42;27.52;;;9.00;99.90;;;;;;6189819;23;20019;-90
2023/04/16 03:13:01;;;;;;;49.95;27.60;;;9.00;99.90;;;;;;6216071;23;20013;-89
2023/04/16 03:15:26;;;;;;;45.90;25.77;;;9.00;99.90;;;;;;6216510;23;20020;-89
2023/04/16 03:17:52;;;;;;;61.67;31.38;;;9.00;99.90;;;;;;6216072;23;20020;-89
2023/04/16 03:20:18;;;;;;;62.65;30.70;;;9.00;99.90;;;;;;6189031;23;20013;-89
2023/04/16 03:22:45;;;;;;;60.20;31.15;;;9.00;99.90;;;;;;6189465;23;20044;-90
2023/04/16 03:25:10;;;;;;;66.43;33.38;;;9.00;99.90;;;;;;6216803;23;20067;-90
2023/04/16 03:27:38;;;;;;;54.90;29.88;;;9.00;99.90;;;;;;6215780;23;20384;-90
2023/04/16 03:30:07;;;;;;;64.30;32.70;;;9.00;99.90;;;;;;6217177;23;20017;-89
2023/04/16 03:32:33;;;;;;;55.13;29.08;;;9.00;99.90;;;;;;6189028;23;20028;-90
2023/04/16 03:34:59;;;;;;;50.03;28.48;;;9.00;99.90;;;;;;6216092;23;20012;-89
2023/04/16 03:37:25;;;;;;;58.50;30.17;;;9.00;99.90;;;;;;6188972;23;20413;-90
2023/04/16 03:39:50;;;;;;;58.25;29.98;;;8.90;99.90;;;;;;6188616;23;20019;-89
2023/04/16 03:42:16;;;;;;;45.03;26.85;;;9.00;99.90;;;;;;6189563;23;20009;-90
2023/04/16 03:44:42;;;;;;;55.15;30.83;;;8.90;99.90;;;;;;6189390;23;20067;-88
2023/04/16 03:47:07;;;;;;;53.20;29.67;;;9.00;99.90;;;;;;6215759;23;20131;-88
2023/04/16 03:49:33;;;;;;;54.70;29.33;;;8.90;99.90;;;;;;6189194;23;20012;-89
2023/04/16 03:51:58;;;;;;;49.03;27.25;;;9.00;99.90;;;;;;6189522;23;20445;-89
2023/04/16 03:54:24;;;;;;;56.90;28.45;;;8.90;99.90;;;;;;6188744;23;20016;-90
2023/04/16 03:56:50;;;;;;;45.22;25.70;;;8.90;99.90;;;;;;6189773;23;20323;-90
2023/04/16 03:59:16;;;;;;;63.67;31.67;;;8.90;99.90;;;;;;6189706;23;20023;-89
2023/04/16 04:01:42;;;;;;;42.85;25.40;;;8.90;99.90;;;;;;6214916;23;20393;-90
2023/04/16 04:04:08;;;;;;;43.22;25.42;;;9.00;99.90;;;;;;6216126;23;20020;-89
2023/04/16 04:06:34;;;;;;;44.50;26.20;;;8.90;99.90;;;;;;6216073;23;20017;-89
2023/04/16 04:08:59;;;;;;;49.58;27.45;;;8.90;99.90;;;;;;6215794;23;20373;-90
2023/04/16 04:11:25;;;;;;;58.25;29.05;;;8.90;99.90;;;;;;6189623;23;20020;-90
2023/04/16 04:13:51;;;;;;;43.42;25.88;;;8.90;99.90;;;;;;6216011;23;20829;-89
2023/04/16 04:16:16;;;;;;;51.88;28.73;;;9.00;99.90;;;;;;6215438;23;20333;-90
2023/04/16 04:18:42;;;;;;;47.85;27.98;;;9.00;99.90;;;;;;6216061;23;20020;-88
2023/04/16 04:21:08;;;;;;;58.50;31.10;;;8.90;99.90;;;;;;6215855;23;20019;-89
2023/04/16 04:23:35;;;;;;;46.97;27.23;;;9.00;99.90;;;;;;6188521;23;20504;-89
2023/04/16 04:26:04;;;;;;;42.45;25.55;;;9.00;99.90;;;;;;6216248;23;20008;-90
2023/04/16 04:28:33;;;;;;;41.65;24.38;;;9.00;99.90;;;;;;6189531;23;20017;-88
2023/04/16 04:31:00;;;;;;;40.42;24.42;;;9.00;99.90;;;;;;6188621;23;20012;-90
2023/04/16 04:33:26;;;;;;;40.00;25.17;;;9.00;99.90;;;;;;6190116;23;20066;-90
2023/04/16 04:35:53;;;;;;;41.35;26.08;;;9.00;99.90;;;;;;6189523;23;20021;-90
2023/04/16 04:38:20;;;;;;;45.67;25.98;;;9.00;99.90;;;;;;6188529;23;20408;-91
2023/04/16 04:40:47;;;;;;;40.17;24.70;;;9.00;99.90;;;;;;6188729;23;20031;-89
2023/04/16 04:43:13;;;;;;;43.13;25.52;;;9.00;99.90;;;;;;6188098;23;20384;-89
2023/04/16 04:45:39;;;;;;;35.60;24.35;;;9.00;99.90;;;;;;6188529;23;20016;-89
2023/04/16 04:48:05;;;;;;;48.42;25.00;;;9.00;99.90;;;;;;6189003;23;20024;-89
2023/04/16 04:50:30;;;;;;;43.63;24.48;;;9.00;99.90;;;;;;6187485;23;20011;-89
2023/04/16 04:52:56;;;;;;;44.65;24.85;;;9.00;99.90;;;;;;6215757;23;20311;-89
2023/04/16 04:55:22;;;;;;;55.67;28.02;;;9.00;99.90;;;;;;6216073;23;20024;-90
2023/04/16 04:57:48;;;;;;;56.22;27.30;;;9.00;99.90;;;;;;6187594;23;20020;-89
2023/04/16 05:00:14;;;;;;;62.08;28.65;;;9.00;99.90;;;;;;6215529;23;20017;-90
2023/04/16 05:02:40;;;;;;;47.17;25.33;;;8.90;99.90;;;;;;6188600;23;20017;-89
2023/04/16 05:05:06;;;;;;;48.20;26.27;;;8.90;99.90;;;;;;6215026;23;20089;-90
2023/04/16 05:07:31;;;;;;;44.05;25.20;;;8.90;99.90;;;;;;6187992;23;20060;-88
2023/04/16 05:09:57;;;;;;;39.10;23.60;;;8.90;99.90;;;;;;6189171;23;20067;-88
2023/04/16 05:12:23;;;;;;;51.63;26.42;;;8.90;99.90;;;;;;6187893;23;20020;-90
2023/04/16 05:14:48;;;;;;;47.42;25.15;;;8.90;99.90;;;;;;6215421;23;20031;-89
2023/04/16 05:17:14;;;;;;;45.00;26.17;;;8.90;99.90;;;;;;6188878;23;20020;-89
2023/04/16 05:19:39;;;;;;;46.33;24.77;;;8.90;99.90;;;;;;6187749;23;20433;-88
2023/04/16 05:22:05;;;;;;;56.80;28.20;;;8.90;99.90;;;;;;6190341;23;20005;-89
2023/04/16 05:24:31;;;;;;;54.85;26.00;;;8.90;99.90;;;;;;6215882;23;20017;-88
2023/04/16 05:26:57;;;;;;;49.20;27.35;;;8.90;99.90;;;;;;6188877;23;20013;-88
2023/04/16 05:29:22;;;;;;;55.85;27.92;;;8.90;99.90;;;;;;6189046;23;20013;-90
2023/04/16 05:31:48;;;;;;;44.30;24.77;;;8.90;99.90;;;;;;6216835;23;20054;-90
2023/04/16 05:34:14;;;;;;;42.13;25.33;;;8.90;99.90;;;;;;6215488;23;20024;-90
2023/04/16 05:36:39;;;;;;;42.45;24.00;;;8.90;99.90;;;;;;6215315;23;20017;-88
2023/04/16 05:39:06;;;;;;;41.20;24.58;;;8.90;99.90;;;;;;6188978;23;20449;-89
2023/04/16 05:41:32;;;;;;;42.40;25.27;;;8.90;99.90;;;;;;6214886;23;20020;-89
2023/04/16 05:43:58;;;;;;;54.50;26.67;;;8.90;99.90;;;;;;6215595;23;20349;-89
2023/04/16 05:46:23;;;;;;;45.08;26.05;;;8.90;99.90;;;;;;6215142;23;20028;-88
2023/04/16 05:48:49;;;;;;;48.50;24.67;;;8.90;99.90;;;;;;6188970;23;20071;-89
2023/04/16 05:51:15;;;;;;;53.33;27.08;;;8.90;99.90;;;;;;6190169;23;20017;-91
2023/04/16 05:53:40;;;;;;;43.35;25.00;;;8.80;99.90;;;;;;6189525;23;20024;-91
2023/04/16 05:56:07;;;;;;;50.95;26.08;;;8.90;99.90;;;;;;6218680;23;20012;-91
2023/04/16 05:58:33;;;;;;;39.10;24.00;;;8.90;99.90;;;;;;6217881;23;20021;-90
2023/04/16 06:00:59;;;;;;;43.92;24.98;;;8.90;99.90;;;;;;6191431;23;20019;-91
2023/04/16 06:03:25;;;;;;;42.05;23.35;;;8.90;99.90;;;;;;6218505;23;20017;-91
2023/04/16 06:05:51;;;;;;;47.92;25.15;;;8.80;99.90;;;;;;6190940;23;20420;-90
2023/04/16 06:08:17;;;;;;;49.28;25.05;;;8.90;99.90;;;;;;6190802;23;20023;-91
2023/04/16 06:10:44;;;;;;;39.38;22.25;;;8.80;99.90;;;;;;6191177;23;20013;-90
2023/04/16 06:13:10;;;;;;;42.83;23.05;;;8.90;99.90;;;;;;6217828;23;20445;-92
2023/04/16 06:15:35;;;;;;;48.83;24.17;;;8.80;99.90;;;;;;6217593;23;20083;-92
2023/04/16 06:18:01;;;;;;;40.72;22.30;;;8.90;99.90;;;;;;6191539;23;20020;-92
2023/04/16 06:20:27;;;;;;;41.80;23.13;;;9.00;99.90;;;;;;6217560;23;20321;-90
2023/04/16 06:22:52;;;;;;;50.30;23.80;;;8.90;99.90;;;;;;6189032;23;20017;-88
2023/04/16 06:25:18;;;;;;;42.13;22.38;;;8.90;99.90;;;;;;6190552;23;20019;-90
2023/04/16 06:27:43;;;;;;;43.00;23.08;;;9.00;99.90;;;;;;6191313;23;20016;-89
2023/04/16 06:30:14;;;;;;;43.85;23.95;;;9.00;99.90;;;;;;6189971;23;20067;-90
2023/04/16 06:32:41;;;;;;;49.53;23.10;;;8.90;99.90;;;;;;6190737;23;20020;-90
2023/04/16 06:35:07;;;;;;;39.78;22.92;;;9.00;99.90;;;;;;6217400;23;20013;-85
2023/04/16 06:37:32;;;;;;;41.30;22.67;;;9.00;99.90;;;;;;6215311;23;20020;-85
2023/04/16 06:39:58;;;;;;;41.25;22.67;;;9.00;99.90;;;;;;6216155;23;20453;-85
2023/04/16 06:42:23;;;;;;;39.20;21.90;;;9.00;99.90;;;;;;6216610;23;20082;-85
2023/04/16 06:44:49;;;;;;;49.05;23.65;;;9.00;99.90;;;;;;6215621;23;20391;-88
2023/04/16 06:47:15;;;;;;;38.05;21.67;;;9.10;99.90;;;;;;6216922;23;20429;-89
2023/04/16 06:49:41;;;;;;;51.13;23.50;;;9.10;99.90;;;;;;6217812;23;20084;-90
2023/04/16 06:52:06;;;;;;;42.08;21.63;;;9.10;99.90;;;;;;6219135;23;20083;-92
2023/04/16 06:54:32;;;;;;;37.70;21.13;;;9.10;99.90;;;;;;6218849;23;20150;-93
2023/04/16 06:56:57;;;;;;;41.00;21.52;;;9.10;99.90;;;;;;6192681;23;20099;-91
2023/04/16 06:59:23;;;;;;;42.30;21.25;;;9.20;99.90;;;;;;6219063;23;20071;-92
2023/04/16 07:01:50;;;;;;;38.85;21.70;;;9.20;99.90;;;;;;6192614;23;20528;-94
2023/04/16 07:04:15;;;;;;;44.75;22.27;;;9.20;99.90;;;;;;6219381;23;20339;-93
2023/04/16 07:06:41;;;;;;;53.60;23.15;;;9.20;99.90;;;;;;6216684;23;20017;-93
2023/04/16 07:09:06;;;;;;;37.22;20.52;;;9.20;99.90;;;;;;6192365;23;20013;-93
2023/04/16 07:11:33;;;;;;;36.83;20.45;;;9.20;99.90;;;;;;6218029;23;20016;-93
2023/04/16 07:13:58;;;;;;;49.80;23.25;;;9.30;99.90;;;;;;6219147;23;20024;-93
2023/04/16 07:16:24;;;;;;;43.92;20.42;;;9.30;99.90;;;;;;6192481;23;20016;-93
2023/04/16 07:18:50;;;;;;;39.42;20.27;;;9.30;99.90;;;;;;6191603;23;20066;-92
2023/04/16 07:21:15;;;;;;;29.33;19.25;;;9.40;99.90;;;;;;6192120;23;20036;-93
2023/04/16 07:23:41;;;;;;;44.65;21.48;;;9.40;99.90;;;;;;6219037;23;20016;-92
2023/04/16 07:26:06;;;;;;;38.75;20.25;;;9.40;99.90;;;;;;6218914;23;20027;-92
2023/04/16 07:28:32;;;;;;;53.50;22.55;;;9.40;99.90;;;;;;6192147;23;20502;-92
2023/04/16 07:30:58;;;;;;;50.08;21.90;;;9.40;99.90;;;;;;6191603;23;20087;-92
2023/04/16 07:33:24;;;;;;;48.47;22.60;;;9.50;99.90;;;;;;6191796;23;20048;-91
2023/04/16 07:35:50;;;;;;;50.45;21.48;;;9.50;99.90;;;;;;6218361;23;20024;-94
2023/04/16 07:38:15;;;;;;;47.35;21.83;;;9.50;99.90;;;;;;6218567;23;20022;-94
2023/04/16 07:40:41;;;;;;;47.25;22.08;;;9.50;99.90;;;;;;6218275;23;20079;-93
2023/04/16 07:43:07;;;;;;;43.95;21.60;;;9.50;99.90;;;;;;6218654;23;20031;-94
2023/04/16 07:45:32;;;;;;;45.08;20.48;;;9.50;99.90;;;;;;6192068;23;20039;-95
2023/04/16 07:47:58;;;;;;;44.33;21.45;;;9.60;99.90;;;;;;6192025;23;20036;-94
2023/04/16 07:50:24;;;;;;;48.20;21.17;;;9.60;99.90;;;;;;6192537;23;20078;-94
2023/04/16 07:52:50;;;;;;;41.70;20.35;;;9.60;99.90;;;;;;6192389;23;20021;-93
2023/04/16 07:55:15;;;;;;;44.55;21.35;;;9.60;99.90;;;;;;6191709;23;20015;-93
2023/04/16 07:57:41;;;;;;;41.38;20.70;;;9.60;99.90;;;;;;6218666;23;20044;-94
2023/04/16 08:00:08;;;;;;;51.05;21.45;;;9.70;99.90;;;;;;6190998;23;20431;-93
2023/04/16 08:02:33;;;;;;;47.60;20.58;;;9.70;99.90;;;;;;6218280;23;20134;-94
2023/04/16 08:04:59;;;;;;;39.47;19.92;;;9.70;99.90;;;;;;6190806;23;20017;-92
2023/04/16 08:07:25;;;;;;;42.95;20.77;;;9.70;99.90;;;;;;6190141;23;20337;-93
2023/04/16 08:09:52;;;;;;;49.33;21.10;;;9.70;99.90;;;;;;6217544;23;20704;-93
2023/04/16 08:12:18;;;;;;;42.40;21.13;;;9.80;99.90;;;;;;6191978;23;20023;-93
2023/04/16 08:14:44;;;;;;;48.08;20.67;;;9.80;99.90;;;;;;6190684;23;20021;-93
2023/04/16 08:17:14;;;;;;;39.33;20.67;;;9.80;99.90;;;;;;6190482;23;20036;-92
2023/04/16 08:19:41;;;;;;;49.15;21.15;;;9.80;99.90;;;;;;6189816;23;20027;-91
2023/04/16 08:22:06;;;;;;;45.72;21.10;;;9.80;99.90;;;;;;6189665;23;20040;-92
2023/04/16 08:24:32;;;;;;;45.30;20.98;;;9.80;99.90;;;;;;6189271;23;20087;-91
2023/04/16 08:26:57;;;;;;;40.63;20.65;;;9.80;99.90;;;;;;6217263;23;20032;-91
2023/04/16 08:29:25;;;;;;;34.42;19.33;;;9.80;99.90;;;;;;6189895;23;20456;-91
2023/04/16 08:31:51;;;;;;;41.53;20.05;;;9.90;99.90;;;;;;6190301;23;20012;-91
2023/04/16 08:34:17;;;;;;;41.38;18.63;;;9.90;99.90;;;;;;6190464;23;20020;-91
2023/04/16 08:36:42;;;;;;;33.80;19.25;;;10.00;99.90;;;;;;6189595;23;20016;-91
2023/04/16 08:39:08;;;;;;;41.72;23.52;;;10.00;99.90;;;;;;6190015;23;20016;-92
2023/04/16 08:41:36;;;;;;;40.40;20.70;;;10.00;99.90;;;;;;6190153;23;20389;-92
2023/04/16 08:44:08;;;;;;;32.67;17.98;;;10.00;99.90;;;;;;6189724;23;20055;-91
2023/04/16 08:46:36;;;;;;;44.00;20.70;;;10.10;99.90;;;;;;6190014;23;20423;-92
2023/04/16 08:49:05;;;;;;;37.78;19.23;;;10.10;99.90;;;;;;6189896;23;20017;-91
2023/04/16 08:51:34;;;;;;;35.42;18.17;;;10.20;99.90;;;;;;6189627;23;20027;-92
2023/04/16 08:54:07;;;;;;;38.40;19.45;;;10.30;99.90;;;;;;6190006;23;20017;-91
2023/04/16 08:56:35;;;;;;;38.13;19.52;;;10.40;99.90;;;;;;6189752;23;20020;-91
2023/04/16 08:59:04;;;;;;;43.35;19.13;;;10.40;99.90;;;;;;6190422;23;20479;-92
2023/04/16 09:01:31;;;;;;;31.42;17.70;;;10.50;99.90;;;;;;6216978;23;20024;-91
2023/04/16 09:04:00;;;;;;;34.15;17.88;;;10.50;99.90;;;;;;6216056;23;20016;-92
2023/04/16 09:06:27;;;;;;;31.55;17.05;;;10.60;99.90;;;;;;6216388;23;20008;-92
2023/04/16 09:08:53;;;;;;;30.17;16.30;;;10.70;99.90;;;;;;6215953;23;20388;-92
2023/04/16 09:11:19;;;;;;;30.40;16.70;;;10.80;99.90;;;;;;6189078;23;20008;-91
2023/04/16 09:13:45;;;;;;;40.15;17.25;;;10.90;99.90;;;;;;6189211;23;20027;-92
2023/04/16 09:16:12;;;;;;;29.17;16.42;;;11.00;99.90;;;;;;6216209;23;20016;-91
2023/04/16 09:18:38;;;;;;;27.67;16.52;;;11.20;99.90;;;;;;6188252;23;20024;-91
2023/04/16 09:21:04;;;;;;;30.83;15.60;;;11.30;99.90;;;;;;6189766;23;20009;-92
2023/04/16 09:23:30;;;;;;;35.45;16.55;;;11.40;99.90;;;;;;6216592;23;20094;-91
2023/04/16 09:25:58;;;;;;;32.38;16.70;;;11.40;99.90;;;;;;6215082;23;20008;-90
2023/04/16 09:28:46;;;;;;;28.65;14.95;;;11.50;99.90;;;;;;6216208;23;20027;-91
2023/04/16 09:31:13;;;;;;;31.63;15.77;;;11.60;99.90;;;;;;6218089;23;20095;-91
2023/04/16 09:33:41;;;;;;;28.95;16.45;;;11.70;99.90;;;;;;6217177;23;20020;-91
2023/04/16 09:36:07;;;;;;;23.63;15.35;;;11.70;99.90;;;;;;6218248;23;20040;-90
2023/04/16 09:38:50;;;;;;;23.63;15.05;;;11.80;99.90;;;;;;6216382;23;20016;-90
2023/04/16 09:41:15;;;;;;;25.73;15.43;;;11.80;99.90;;;;;;6216527;23;20032;-87
2023/04/16 09:43:55;;;;;;;26.52;15.07;;;11.80;99.90;;;;;;6190460;23;20736;-90
2023/04/16 09:46:21;;;;;;;27.10;14.75;;;11.90;99.90;;;;;;6189027;23;20017;-89
2023/04/16 09:48:46;;;;;;;29.00;15.27;;;12.00;99.90;;;;;;6190207;23;20012;-89
2023/04/16 09:51:12;;;;;;;32.00;15.75;;;12.10;99.90;;;;;;6190806;23;20012;-88
2023/04/16 09:53:38;;;;;;;28.85;14.73;;;12.10;99.90;;;;;;6216312;23;20025;-88
2023/04/16 09:56:06;;;;;;;25.75;14.52;;;12.20;99.90;;;;;;6216925;23;20019;-89
2023/04/16 09:58:35;;;;;;;25.25;14.75;;;12.30;99.90;;;;;;6190355;23;20025;-90
2023/04/16 10:01:10;;;;;;;25.50;14.88;;;12.30;99.90;;;;;;6216865;23;20131;-90
2023/04/16 10:03:37;;;;;;;25.90;13.85;;;12.40;99.90;;;;;;6190480;23;20017;-89
2023/04/16 10:06:19;;;;;;;26.92;14.50;;;12.50;99.90;;;;;;6217225;23;20432;-91
2023/04/16 10:08:48;;;;;;;24.10;14.30;;;12.60;99.90;;;;;;6217207;23;20024;-90
2023/04/16 10:11:15;;;;;;;23.15;13.43;;;12.70;99.90;;;;;;6204130;23;20017;-90
2023/04/16 10:13:41;;;;;;;21.90;13.80;;;12.80;99.90;;;;;;6195982;23;20023;-91
2023/04/16 10:16:10;;;;;;;21.10;14.07;;;12.80;99.90;;;;;;6218719;23;20017;-91
2023/04/16 10:18:37;;;;;;;21.80;14.00;;;12.90;99.90;;;;;;6191762;23;20059;-91
2023/04/16 10:21:03;;;;;;;22.58;14.05;;;12.90;99.90;;;;;;6192028;23;20017;-91
2023/04/16 10:23:29;;;;;;;21.52;13.98;;;13.00;99.90;;;;;;6192140;23;20016;-94
2023/04/16 10:25:57;;;;;;;22.45;13.43;;;13.10;99.90;;;;;;6191948;23;20012;-93
2023/04/16 10:28:24;;;;;;;20.38;13.00;;;13.10;99.90;;;;;;6190032;23;20023;-89
2023/04/16 10:30:54;;;;;;;22.90;12.85;;;13.20;99.90;;;;;;6216833;23;20040;-89
2023/04/16 10:33:26;;;;;;;24.50;13.98;;;13.30;99.90;;;;;;6217406;23;20067;-86
2023/04/16 10:36:11;;;;;;;22.88;12.57;;;13.40;99.90;;;;;;6189252;23;20019;-91
2023/04/16 10:38:44;;;;;;;25.88;14.27;;;13.50;99.90;;;;;;6217010;23;20048;-90
2023/04/16 10:41:10;;;;;;;26.38;14.50;;;13.60;99.90;;;;;;6189871;23;20017;-89
2023/04/16 10:43:40;;;;;;;23.02;13.73;;;13.60;99.90;;;;;;6189053;23;20031;-88
2023/04/16 10:46:31;;;;;;;22.48;13.05;;;13.70;99.90;;;;;;6217332;23;20372;-90
2023/04/16 10:49:00;;;;;;;24.95;14.73;;;13.70;99.90;;;;;;6188858;23;20016;-88
2023/04/16 10:51:34;;;;;;;25.30;13.70;;;13.70;99.90;;;;;;6216305;23;20088;-87
2023/04/16 10:54:19;;;;;;;26.42;14.10;;;13.90;99.90;;;;;;6188770;23;20091;-88
2023/04/16 10:56:46;;;;;;;24.88;13.65;;;13.90;99.90;;;;;;6188595;23;20025;-88
2023/04/16 10:59:16;;;;;;;24.42;13.02;;;14.00;99.90;;;;;;6216496;23;20016;-88
2023/04/16 11:01:43;;;;;;;26.52;13.88;;;14.00;99.90;;;;;;6189555;23;20009;-87
2023/04/16 11:04:31;;;;;;;23.48;13.27;;;14.00;99.60;;;;;;6215956;23;20020;-87
2023/04/16 11:07:03;;;;;;;22.38;13.05;;;14.00;99.10;;;;;;6216596;23;20343;-88
2023/04/16 11:09:51;;;;;;;27.50;14.55;;;14.00;98.80;;;;;;6189658;23;20021;-88
2023/04/16 11:12:23;;;;;;;26.98;13.98;;;14.10;99.20;;;;;;6215680;23;20024;-88
2023/04/16 11:14:51;;;;;;;23.13;14.63;;;14.10;99.00;;;;;;6189367;23;20020;-88
2023/04/16 11:17:18;;;;;;;26.33;14.27;;;14.10;99.30;;;;;;6213813;23;20016;-88
2023/04/16 11:19:44;;;;;;;29.63;13.40;;;14.10;99.50;;;;;;6185729;23;20484;-88
2023/04/16 11:22:13;;;;;;;22.23;12.32;;;14.10;99.50;;;;;;6213268;23;20059;-88
2023/04/16 11:24:40;;;;;;;21.75;13.40;;;14.10;99.20;;;;;;6186122;23;20023;-88
2023/04/16 11:27:06;;;;;;;23.45;12.20;;;14.10;98.80;;;;;;6187133;23;20487;-88
2023/04/16 11:29:32;;;;;;;28.75;13.52;;;14.10;98.40;;;;;;6188200;23;20063;-89
2023/04/16 11:31:57;;;;;;;27.60;12.75;;;14.20;98.70;;;;;;6189171;23;20107;-89
2023/04/16 11:34:24;;;;;;;20.38;12.05;;;14.20;99.00;;;;;;6189874;23;20017;-88
2023/04/16 11:36:51;;;;;;;25.48;12.70;;;14.20;99.00;;;;;;6187580;23;20021;-93
2023/04/16 11:39:17;;;;;;;25.50;13.85;;;14.30;98.50;;;;;;6188244;23;20016;-91
2023/04/16 11:41:43;;;;;;;25.58;13.45;;;14.30;98.70;;;;;;6188407;23;20096;-90
2023/04/16 11:44:23;;;;;;;28.77;14.20;;;14.30;98.90;;;;;;6215585;23;20040;-90
2023/04/16 11:46:50;;;;;;;28.20;14.18;;;14.30;98.60;;;;;;6190137;23;20009;-90
2023/04/16 11:49:16;;;;;;;26.63;13.75;;;14.30;98.60;;;;;;6217244;23;20079;-89
2023/04/16 11:51:43;;;;;;;28.38;14.13;;;14.30;98.50;;;;;;6189473;23;20503;-89
2023/04/16 11:54:20;;;;;;;29.83;14.57;;;14.30;98.30;;;;;;6216590;23;20013;-91
2023/04/16 11:56:47;;;;;;;29.80;15.00;;;14.20;98.50;;;;;;6189358;23;20016;-90
2023/04/16 11:59:15;;;;;;;30.30;14.32;;;14.30;99.00;;;;;;6216497;23;20079;-90
2023/04/16 12:01:49;;;;;;;33.00;14.90;;;14.30;99.10;;;;;;6216404;23;20084;-91
2023/04/16 12:04:15;;;;;;;;;;;14.30;98.90;;;;;;6191076;23;20084;-93
2023/04/16 12:07:11;;;;;;;27.73;14.45;;;14.20;98.70;;;;;;6189291;23;19987;-91
2023/04/16 12:09:41;;;;;;;29.73;14.45;;;14.20;99.00;;;;;;6190064;23;20016;-91
2023/04/16 12:12:29;;;;;;;31.25;14.50;;;14.30;99.50;;;;;;6217308;23;20013;-89
2023/04/16 12:14:56;;;;;;;31.42;14.63;;;14.30;98.80;;;;;;6189495;23;20047;-89
2023/04/16 12:17:22;;;;;;;30.65;13.85;;;14.40;99.30;;;;;;6189619;23;20013;-92
2023/04/16 12:19:54;;;;;;;28.67;13.70;;;14.50;99.20;;;;;;6216085;23;20341;-92
2023/04/16 12:22:33;;;;;;;30.83;14.70;;;14.50;98.50;;;;;;6189999;23;20013;-93
2023/04/16 12:25:10;;;;;;;31.27;14.68;;;14.50;99.10;;;;;;6190061;23;20047;-92
2023/04/16 12:27:52;;;;;;;27.45;14.32;;;14.60;99.40;;;;;;6188869;23;20016;-92
2023/04/16 12:30:19;;;;;;;34.20;16.15;;;14.60;99.10;;;;;;6190149;23;20504;-92
2023/04/16 12:32:50;;;;;;;28.40;14.43;;;14.70;99.30;;;;;;6189623;23;20024;-92